createdAt,value
2018-06-12T00:00:49.033Z,11.90
2018-06-12T00:03:29.862Z,16.80
2018-06-12T00:06:03.869Z,18.03
2018-06-12T00:08:37.687Z,14.63
2018-06-12T00:11:11.743Z,13.97
2018-06-12T00:13:45.586Z,16.57
2018-06-12T00:16:19.610Z,16.00
2018-06-12T00:18:53.734Z,16.90
2018-06-12T00:21:27.699Z,15.60
2018-06-12T00:24:02.006Z,16.77
2018-06-12T00:26:35.996Z,14.00
2018-06-12T00:29:09.862Z,17.97
2018-06-12T00:31:43.912Z,16.87
2018-06-12T00:34:18.121Z,13.70
2018-06-12T00:36:52.056Z,19.10
2018-06-12T00:39:25.980Z,15.23
2018-06-12T00:41:59.920Z,16.77
2018-06-12T00:44:34.018Z,15.67
2018-06-12T00:47:08.148Z,15.00
2018-06-12T00:49:42.284Z,14.67
2018-06-12T00:52:16.523Z,14.03
2018-06-12T00:54:50.606Z,18.83
2018-06-12T00:57:24.977Z,16.33
2018-06-12T00:59:58.882Z,14.63
2018-06-12T01:02:32.743Z,14.53
2018-06-12T01:05:06.842Z,16.63
2018-06-12T01:07:40.931Z,16.70
2018-06-12T01:10:15.381Z,17.27
2018-06-12T01:12:49.216Z,18.37
2018-06-12T01:15:23.381Z,20.73
2018-06-12T01:17:57.450Z,20.87
2018-06-12T01:20:31.454Z,21.20
2018-06-12T01:23:05.633Z,20.40
2018-06-12T01:25:39.762Z,18.90
2018-06-12T01:28:13.666Z,17.40
2018-06-12T01:30:47.629Z,19.73
2018-06-12T01:33:21.556Z,18.10
2018-06-12T01:35:55.407Z,21.17
2018-06-12T01:38:29.690Z,19.77
2018-06-12T01:41:03.538Z,21.33
2018-06-12T01:43:37.472Z,19.13
2018-06-12T01:46:11.411Z,19.33
2018-06-12T01:48:45.645Z,22.17
2018-06-12T01:51:19.258Z,23.63
2018-06-12T01:53:53.350Z,21.77
2018-06-12T01:56:27.191Z,24.03
2018-06-12T01:59:01.104Z,20.43
2018-06-12T02:01:35.103Z,21.53
2018-06-12T02:04:09.463Z,22.43
2018-06-12T02:06:43.597Z,21.97
2018-06-12T02:09:17.636Z,23.17
2018-06-12T02:11:51.432Z,22.27
2018-06-12T02:14:25.593Z,24.17
2018-06-12T02:16:59.514Z,21.53
2018-06-12T02:19:33.971Z,22.03
2018-06-12T02:22:07.792Z,20.40
2018-06-12T02:24:42.098Z,22.83
2018-06-12T02:27:15.957Z,21.77
2018-06-12T02:29:49.731Z,24.30
2018-06-12T02:32:24.002Z,21.87
2018-06-12T02:34:58.133Z,26.83
2018-06-12T02:37:32.741Z,23.80
2018-06-12T02:40:07.036Z,21.70
2018-06-12T02:42:40.883Z,25.10
2018-06-12T02:45:14.784Z,21.97
2018-06-12T02:47:48.867Z,23.47
2018-06-12T02:50:22.648Z,20.03
2018-06-12T02:52:56.684Z,22.43
2018-06-12T02:55:30.994Z,19.33
2018-06-12T02:58:05.067Z,22.80
2018-06-12T03:00:38.854Z,22.43
2018-06-12T03:03:13.096Z,18.77
2018-06-12T03:05:46.883Z,24.07
2018-06-12T03:08:20.797Z,17.17
2018-06-12T03:10:54.633Z,20.87
2018-06-12T03:13:28.576Z,19.37
2018-06-12T03:16:02.367Z,19.33
2018-06-12T03:18:36.648Z,17.40
2018-06-12T03:21:10.812Z,15.33
2018-06-12T03:23:44.677Z,15.87
2018-06-12T03:26:18.514Z,16.97
2018-06-12T03:28:52.269Z,16.63
2018-06-12T03:31:26.227Z,17.27
2018-06-12T03:34:00.049Z,16.53
2018-06-12T03:36:33.856Z,18.77
2018-06-12T03:39:07.757Z,16.57
2018-06-12T03:41:41.837Z,15.47
2018-06-12T03:44:16.209Z,16.40
2018-06-12T03:46:50.303Z,18.30
2018-06-12T03:49:23.992Z,14.63
2018-06-12T03:51:57.903Z,18.27
2018-06-12T03:54:31.645Z,15.73
2018-06-12T03:57:05.598Z,16.80
2018-06-12T03:59:39.854Z,14.57
2018-06-12T04:02:14.028Z,17.97
2018-06-12T04:04:48.182Z,14.93
2018-06-12T04:07:22.394Z,18.53
2018-06-12T04:09:56.197Z,14.30
2018-06-12T04:12:30.429Z,15.70
2018-06-12T04:15:04.323Z,14.33
2018-06-12T04:17:38.485Z,16.83
2018-06-12T04:20:12.373Z,15.37
2018-06-12T04:22:46.368Z,14.57
2018-06-12T04:25:20.501Z,15.37
2018-06-12T04:27:54.354Z,15.47
2018-06-12T04:30:28.403Z,12.77
2018-06-12T04:33:02.287Z,17.33
2018-06-12T04:35:36.387Z,11.93
2018-06-12T04:38:11.303Z,14.17
2018-06-12T04:40:45.352Z,13.60
2018-06-12T04:43:19.453Z,12.93
2018-06-12T04:45:53.598Z,12.67
2018-06-12T04:48:27.233Z,13.57
2018-06-12T04:51:01.184Z,11.23
2018-06-12T04:53:35.062Z,11.90
2018-06-12T04:56:08.990Z,11.57
2018-06-12T04:58:43.338Z,12.63
2018-06-12T05:01:17.365Z,16.27
2018-06-12T05:03:51.369Z,14.63
2018-06-12T05:06:25.657Z,11.80
2018-06-12T05:08:59.700Z,12.30
2018-06-12T05:11:33.739Z,13.23
2018-06-12T05:14:07.702Z,12.23
2018-06-12T05:16:41.467Z,11.23
2018-06-12T05:19:15.899Z,13.27
2018-06-12T05:21:50.033Z,11.00
2018-06-12T05:24:23.937Z,13.63
2018-06-12T05:26:58.189Z,13.10
2018-06-12T05:29:32.314Z,12.67
2018-06-12T05:32:06.423Z,11.90
2018-06-12T05:34:40.561Z,16.13
2018-06-12T05:37:14.799Z,10.47
2018-06-12T05:39:48.919Z,14.03
2018-06-12T05:42:23.392Z,11.27
2018-06-12T05:44:57.145Z,12.33
2018-06-12T05:47:31.293Z,10.67
2018-06-12T05:50:05.082Z,10.43
2018-06-12T05:52:38.952Z,13.30
2018-06-12T05:55:13.088Z,13.10
2018-06-12T05:57:46.944Z,11.50
2018-06-12T06:00:20.914Z,10.93
2018-06-12T06:02:54.803Z,13.17
2018-06-12T06:05:28.746Z,11.00
2018-06-12T06:08:02.732Z,10.40
2018-06-12T06:10:36.606Z,9.60
2018-06-12T06:13:10.680Z,10.07
2018-06-12T06:15:44.573Z,9.37
2018-06-12T06:18:19.484Z,7.37
2018-06-12T06:20:53.622Z,10.13
2018-06-12T06:23:27.442Z,10.67
2018-06-12T06:26:01.473Z,6.63
2018-06-12T06:28:35.435Z,5.80
2018-06-12T06:31:09.607Z,8.20
2018-06-12T06:33:43.422Z,12.53
2018-06-12T06:36:17.545Z,7.20
2018-06-12T06:38:51.344Z,7.73
2018-06-12T06:41:25.589Z,5.03
2018-06-12T06:43:59.694Z,6.33
2018-06-12T06:46:37.732Z,7.63
2018-06-12T06:49:11.854Z,10.47
2018-06-12T06:51:45.967Z,8.03
2018-06-12T06:54:19.925Z,6.33
2018-06-12T06:56:53.798Z,8.50
2018-06-12T06:59:28.078Z,6.27
2018-06-12T07:02:02.082Z,9.87
2018-06-12T07:04:36.732Z,7.67
2018-06-12T07:07:10.737Z,6.63
2018-06-12T07:09:44.699Z,6.07
2018-06-12T07:12:19.206Z,9.13
2018-06-12T07:14:53.539Z,8.77
2018-06-12T07:17:27.925Z,7.83
2018-06-12T07:20:02.480Z,8.90
2018-06-12T07:22:36.377Z,6.47
2018-06-12T07:27:51.022Z,6.13
2018-06-12T07:30:24.996Z,6.70
2018-06-12T07:32:59.254Z,6.43
2018-06-12T07:35:33.162Z,7.50
2018-06-12T07:38:07.414Z,8.23
2018-06-12T07:40:41.332Z,6.27
2018-06-12T07:43:15.499Z,5.57
2018-06-12T07:45:49.499Z,6.13
2018-06-12T07:48:23.362Z,5.23
2018-06-12T07:50:57.374Z,5.33
2018-06-12T07:53:31.505Z,5.60
2018-06-12T07:56:09.054Z,7.93
2018-06-12T07:58:43.862Z,6.03
2018-06-12T08:01:17.765Z,7.00
2018-06-12T08:03:52.035Z,8.23
2018-06-12T08:06:26.021Z,6.37
2018-06-12T08:09:00.063Z,7.17
2018-06-12T08:11:34.789Z,9.20
2018-06-12T08:14:08.849Z,6.83
2018-06-12T08:16:43.565Z,12.33
2018-06-12T08:19:17.973Z,6.33
2018-06-12T08:21:51.925Z,8.03
2018-06-12T08:24:25.838Z,7.57
2018-06-12T08:26:59.880Z,8.63
2018-06-12T08:29:35.060Z,8.20
2018-06-12T08:32:09.159Z,7.00
2018-06-12T08:34:43.383Z,4.13
2018-06-12T08:37:17.465Z,7.93
2018-06-12T08:39:51.819Z,7.50
2018-06-12T08:42:25.949Z,6.30
2018-06-12T08:45:00.145Z,4.90
2018-06-12T08:47:34.763Z,6.63
2018-06-12T08:50:08.794Z,5.97
2018-06-12T08:52:42.913Z,4.93
2018-06-12T08:55:16.885Z,4.10
2018-06-12T08:57:50.854Z,4.90
2018-06-12T09:00:31.715Z,8.00
2018-06-12T09:03:05.936Z,4.73
2018-06-12T09:05:40.269Z,8.40
2018-06-12T09:08:14.344Z,6.05
2018-06-12T09:10:48.270Z,7.30
2018-06-12T09:13:22.285Z,7.45
2018-06-12T09:15:56.021Z,6.45
2018-06-12T09:18:30.049Z,5.17
2018-06-12T09:21:04.216Z,8.08
2018-06-12T09:23:42.774Z,7.62
2018-06-12T09:26:16.644Z,3.95
2018-06-12T09:28:50.370Z,4.67
2018-06-12T09:31:24.468Z,6.05
2018-06-12T09:33:58.449Z,6.33
2018-06-12T09:36:34.089Z,10.35
2018-06-12T09:39:08.970Z,5.37
2018-06-12T09:41:42.929Z,8.73
2018-06-12T09:44:16.975Z,6.47
2018-06-12T09:46:50.945Z,5.30
2018-06-12T09:49:24.904Z,6.00
2018-06-12T09:51:58.602Z,6.95
2018-06-12T09:54:32.563Z,6.55
2018-06-12T09:57:06.350Z,4.33
2018-06-12T09:59:40.643Z,6.95
2018-06-12T10:02:14.610Z,5.00
2018-06-12T10:04:48.847Z,6.72
2018-06-12T10:07:29.624Z,6.47
2018-06-12T10:10:03.759Z,7.25
2018-06-12T10:12:37.799Z,5.58
2018-06-12T10:15:11.913Z,4.17
2018-06-12T10:17:45.823Z,6.78
2018-06-12T10:20:19.941Z,5.17
2018-06-12T10:22:53.771Z,4.33
2018-06-12T10:25:27.868Z,6.78
2018-06-12T10:28:02.140Z,7.28
2018-06-12T10:30:36.051Z,7.03
2018-06-12T10:33:10.095Z,5.20
2018-06-12T10:35:44.170Z,4.78
2018-06-12T10:38:18.283Z,5.67
2018-06-12T10:40:52.338Z,6.75
2018-06-12T10:43:26.539Z,10.55
2018-06-12T10:46:00.404Z,9.15
2018-06-12T10:48:34.276Z,6.42
2018-06-12T10:51:08.526Z,5.67
2018-06-12T10:53:42.784Z,6.70
2018-06-12T10:56:16.853Z,10.15
2018-06-12T10:58:50.988Z,8.15
2018-06-12T11:01:25.079Z,6.03
2018-06-12T11:03:59.299Z,6.05
2018-06-12T11:06:33.496Z,5.08
2018-06-12T11:09:07.420Z,5.80
2018-06-12T11:11:41.631Z,5.92
2018-06-12T11:14:15.604Z,4.67
2018-06-12T11:16:49.663Z,5.25
2018-06-12T11:19:23.709Z,6.83
2018-06-12T11:21:57.991Z,5.97
2018-06-12T11:24:32.130Z,4.97
2018-06-12T11:27:05.843Z,5.40
2018-06-12T11:29:39.960Z,6.40
2018-06-12T11:32:13.909Z,5.62
2018-06-12T11:34:47.990Z,5.15
2018-06-12T11:37:22.148Z,6.40
2018-06-12T11:39:56.159Z,5.75
2018-06-12T11:42:30.491Z,6.60
2018-06-12T11:45:04.858Z,4.58
2018-06-12T11:47:38.710Z,6.25
2018-06-12T11:50:12.688Z,6.15
2018-06-12T11:52:47.380Z,6.83
2018-06-12T11:55:21.373Z,5.08
2018-06-12T11:57:55.555Z,7.45
2018-06-12T12:00:29.823Z,8.05
2018-06-12T12:03:04.018Z,5.03
2018-06-12T12:05:38.773Z,7.65
2018-06-12T12:08:13.155Z,6.47
2018-06-12T12:10:47.267Z,6.55
2018-06-12T12:13:21.393Z,5.95
2018-06-12T12:15:55.492Z,10.75
2018-06-12T12:18:29.619Z,7.37
2018-06-12T12:21:03.872Z,5.92
2018-06-12T12:23:38.296Z,6.15
2018-06-12T12:26:12.098Z,9.15
2018-06-12T12:28:46.294Z,4.28
2018-06-12T12:31:20.000Z,6.47
2018-06-12T12:33:53.934Z,5.20
2018-06-12T12:36:27.939Z,8.05
2018-06-12T12:39:02.349Z,6.15
2018-06-12T12:41:36.453Z,6.72
2018-06-12T12:44:10.429Z,8.73
2018-06-12T12:46:44.489Z,9.83
2018-06-12T12:49:22.578Z,7.37
2018-06-12T12:51:56.604Z,5.70
2018-06-12T12:54:37.358Z,6.03
2018-06-12T12:57:11.574Z,7.05
2018-06-12T12:59:45.489Z,7.45
2018-06-12T13:02:19.929Z,8.55
2018-06-12T13:04:54.193Z,7.30
2018-06-12T13:07:28.335Z,6.75
2018-06-12T13:10:02.315Z,10.40
2018-06-12T13:12:36.258Z,7.20
2018-06-12T13:15:10.426Z,6.92
2018-06-12T13:17:44.530Z,5.95
2018-06-12T13:20:19.119Z,7.25
2018-06-12T13:22:53.325Z,7.33
2018-06-12T13:25:27.599Z,5.62
2018-06-12T13:28:01.859Z,7.78
2018-06-12T13:30:35.883Z,6.83
2018-06-12T13:33:10.040Z,7.08
2018-06-12T13:35:44.046Z,5.92
2018-06-12T13:38:18.547Z,6.40
2018-06-12T13:40:52.641Z,6.45
2018-06-12T13:43:26.455Z,8.38
2018-06-12T13:46:00.545Z,5.58
2018-06-12T13:48:34.584Z,8.28
2018-06-12T13:51:09.603Z,6.95
2018-06-12T13:53:43.435Z,6.62
2018-06-12T13:56:18.655Z,8.60
2018-06-12T13:58:52.774Z,6.90
2018-06-12T14:01:27.399Z,6.45
2018-06-12T14:04:01.622Z,8.25
2018-06-12T14:06:35.541Z,7.22
2018-06-12T14:09:09.674Z,7.53
2018-06-12T14:11:44.194Z,6.60
2018-06-12T14:14:18.358Z,6.65
2018-06-12T14:16:52.268Z,6.65
2018-06-12T14:19:26.186Z,6.87
2018-06-12T14:22:00.239Z,5.97
2018-06-12T14:24:34.491Z,7.47
2018-06-12T14:27:08.622Z,5.50
2018-06-12T14:29:42.819Z,5.72
2018-06-12T14:32:17.060Z,6.45
2018-06-12T14:34:51.055Z,5.58
2018-06-12T14:37:25.150Z,8.08
2018-06-12T14:39:59.724Z,10.40
2018-06-12T14:42:33.954Z,7.25
2018-06-12T14:45:07.901Z,7.08
2018-06-12T14:47:42.540Z,4.80
2018-06-12T14:50:16.574Z,5.47
2018-06-12T14:52:50.690Z,5.67
2018-06-12T14:55:24.780Z,7.92
2018-06-12T14:57:59.160Z,8.23
2018-06-12T15:00:33.315Z,6.60
2018-06-12T15:03:07.149Z,7.47
2018-06-12T15:05:41.253Z,6.33
2018-06-12T15:08:15.548Z,4.67
2018-06-12T15:10:49.764Z,7.25
2018-06-12T15:13:24.252Z,5.80
2018-06-12T15:15:58.131Z,7.78
2018-06-12T15:18:32.244Z,9.83
2018-06-12T15:21:06.285Z,5.65
2018-06-12T15:23:40.720Z,5.37
2018-06-12T15:26:15.000Z,10.40
2018-06-12T15:28:48.961Z,7.70
2018-06-12T15:31:23.124Z,6.90
2018-06-12T15:33:57.141Z,10.15
2018-06-12T15:36:31.342Z,6.92
2018-06-12T15:39:07.406Z,9.13
2018-06-12T15:41:41.862Z,8.05
2018-06-12T15:44:16.037Z,8.45
2018-06-12T15:46:50.170Z,10.20
2018-06-12T15:49:24.144Z,10.25
2018-06-12T15:52:02.432Z,8.43
2018-06-12T15:54:36.664Z,8.55
2018-06-12T15:57:10.774Z,9.10
2018-06-12T15:59:44.920Z,8.28
2018-06-12T16:02:19.397Z,8.80
2018-06-12T16:04:53.759Z,8.63
2018-06-12T16:07:28.176Z,8.15
2018-06-12T16:10:02.481Z,11.50
2018-06-12T16:12:36.605Z,7.08
2018-06-12T16:15:11.365Z,10.55
2018-06-12T16:17:46.180Z,6.62
2018-06-12T16:20:20.325Z,8.93
2018-06-12T16:22:54.590Z,9.48
2018-06-12T16:25:29.099Z,8.00
2018-06-12T16:28:03.348Z,7.50
2018-06-12T16:30:38.032Z,10.98
2018-06-12T16:33:12.292Z,8.00
2018-06-12T16:35:46.596Z,10.72
2018-06-12T16:38:21.404Z,8.33
2018-06-12T16:40:55.970Z,10.20
2018-06-12T16:43:30.023Z,8.15
2018-06-12T16:46:04.623Z,9.18
2018-06-12T16:48:39.844Z,10.60
2018-06-12T16:51:13.936Z,8.95
2018-06-12T16:53:48.380Z,9.45
2018-06-12T16:56:22.573Z,11.43
2018-06-12T16:58:56.761Z,9.35
2018-06-12T17:01:30.964Z,11.68
2018-06-12T17:04:05.202Z,10.18
2018-06-12T17:06:39.155Z,9.70
2018-06-12T17:09:13.515Z,9.60
2018-06-12T17:11:47.903Z,10.23
2018-06-12T17:14:21.875Z,9.37
2018-06-12T17:16:56.326Z,11.33
2018-06-12T17:19:30.739Z,8.65
2018-06-12T17:22:05.197Z,12.10
2018-06-12T17:24:39.074Z,8.58
2018-06-12T17:27:13.147Z,9.60
2018-06-12T17:29:47.107Z,10.48
2018-06-12T17:32:21.311Z,9.97
2018-06-12T17:34:55.363Z,8.70
2018-06-12T17:37:31.991Z,8.65
2018-06-12T17:40:06.225Z,9.55
2018-06-12T17:42:40.314Z,10.10
2018-06-12T17:45:14.414Z,10.67
2018-06-12T17:47:49.560Z,11.83
2018-06-12T17:50:24.214Z,10.72
2018-06-12T17:52:58.297Z,12.25
2018-06-12T17:55:32.263Z,10.50
2018-06-12T17:58:06.406Z,10.65
2018-06-12T18:00:40.668Z,10.07
2018-06-12T18:03:14.699Z,10.78
2018-06-12T18:05:49.881Z,11.70
2018-06-12T18:08:24.170Z,12.13
2018-06-12T18:10:58.090Z,11.10
2018-06-12T18:13:32.655Z,16.70
2018-06-12T18:16:06.945Z,12.45
2018-06-12T18:18:41.051Z,14.93
2018-06-12T18:21:15.148Z,16.07
2018-06-12T18:23:49.429Z,14.87
2018-06-12T18:26:23.718Z,12.20
2018-06-12T18:28:58.211Z,12.40
2018-06-12T18:31:32.548Z,15.17
2018-06-12T18:34:06.775Z,15.80
2018-06-12T18:36:40.738Z,18.70
2018-06-12T18:39:15.265Z,17.53
2018-06-12T18:41:49.655Z,16.60
2018-06-12T18:44:24.084Z,17.10
2018-06-12T18:46:58.429Z,13.63
2018-06-12T18:49:32.886Z,12.85
2018-06-12T18:52:07.182Z,12.23
2018-06-12T18:54:41.753Z,13.23
2018-06-12T18:57:16.274Z,11.43
2018-06-12T18:59:50.600Z,12.07
2018-06-12T19:02:24.971Z,13.07
2018-06-12T19:04:59.322Z,14.23
2018-06-12T19:07:33.198Z,10.53
2018-06-12T19:10:07.730Z,8.83
2018-06-12T19:12:42.345Z,10.60
2018-06-12T19:15:17.470Z,10.63
2018-06-12T19:17:51.652Z,7.13
2018-06-12T19:20:26.429Z,7.87
2018-06-12T19:23:00.802Z,6.73
2018-06-12T19:25:35.062Z,9.73
2018-06-12T19:28:09.151Z,7.97
2018-06-12T19:30:43.653Z,6.07
2018-06-12T19:33:18.442Z,5.93
2018-06-12T19:35:53.165Z,7.10
2018-06-12T19:38:27.331Z,5.53
2018-06-12T19:41:01.395Z,8.77
2018-06-12T19:43:36.132Z,11.00
2018-06-12T19:46:10.594Z,6.10
2018-06-12T19:48:44.931Z,6.30
2018-06-12T19:51:19.596Z,9.00
2018-06-12T19:53:54.121Z,7.70
2018-06-12T19:56:28.092Z,7.90
2018-06-12T19:59:02.634Z,8.97
2018-06-12T20:01:37.669Z,7.20
2018-06-12T20:04:12.304Z,8.57
2018-06-12T20:06:46.560Z,7.27
2018-06-12T20:09:21.286Z,9.23
2018-06-12T20:11:55.649Z,10.27
2018-06-12T20:14:30.112Z,9.50
2018-06-12T20:17:04.807Z,7.13
2018-06-12T20:19:39.012Z,6.67
2018-06-12T20:22:13.204Z,6.57
2018-06-12T20:24:47.494Z,6.33
2018-06-12T20:27:22.236Z,6.10
2018-06-12T20:29:56.710Z,7.83
2018-06-12T20:32:30.977Z,8.90
2018-06-12T20:35:05.321Z,5.27
2018-06-12T20:37:39.407Z,4.97
2018-06-12T20:40:13.539Z,7.73
2018-06-12T20:42:48.109Z,3.80
2018-06-12T20:45:21.901Z,4.83
2018-06-12T20:47:56.180Z,4.57
2018-06-12T20:50:30.192Z,3.33
2018-06-12T20:53:04.463Z,5.00
2018-06-12T20:55:38.509Z,9.63
2018-06-12T20:58:12.751Z,4.50
2018-06-12T21:00:46.766Z,4.20
2018-06-12T21:03:21.190Z,5.13
2018-06-12T21:05:55.221Z,5.17
2018-06-12T21:08:29.106Z,5.30
2018-06-12T21:11:10.102Z,3.87
2018-06-12T21:13:44.207Z,3.30
2018-06-12T21:16:18.326Z,5.27
2018-06-12T21:18:53.121Z,5.50
2018-06-12T21:21:27.494Z,4.50
2018-06-12T21:24:01.925Z,3.60
2018-06-12T21:26:35.868Z,4.43
2018-06-12T21:29:10.207Z,4.17
2018-06-12T21:31:44.321Z,3.50
2018-06-12T21:34:18.217Z,5.07
2018-06-12T21:36:52.357Z,3.63
2018-06-12T21:39:26.774Z,6.13
2018-06-12T21:42:00.826Z,4.60
2018-06-12T21:47:15.810Z,5.00
2018-06-12T21:49:49.698Z,5.67
2018-06-12T21:52:23.748Z,3.57
2018-06-12T21:54:57.630Z,7.83
2018-06-12T21:57:31.547Z,6.60
2018-06-12T22:00:07.136Z,4.83
2018-06-12T22:02:41.091Z,4.50
2018-06-12T22:05:15.160Z,4.50
2018-06-12T22:07:49.674Z,4.07
2018-06-12T22:10:24.240Z,6.03
2018-06-12T22:12:58.315Z,3.47
2018-06-12T22:15:32.375Z,4.47
2018-06-12T22:18:13.441Z,4.27
2018-06-12T22:20:47.268Z,3.90
2018-06-12T22:23:21.150Z,4.20
2018-06-12T22:25:55.347Z,4.20
2018-06-12T22:28:29.767Z,7.93
2018-06-12T22:31:03.826Z,3.80
2018-06-12T22:33:37.907Z,6.80
2018-06-12T22:36:12.094Z,6.83
2018-06-12T22:38:46.112Z,6.03
2018-06-12T22:41:20.225Z,4.90
2018-06-12T22:43:54.390Z,4.77
2018-06-12T22:46:28.134Z,4.40
2018-06-12T22:49:02.121Z,5.10
2018-06-12T22:51:36.013Z,6.10
2018-06-12T22:54:10.039Z,3.70
2018-06-12T22:56:44.125Z,4.97
2018-06-12T22:59:18.214Z,4.50
2018-06-12T23:01:52.294Z,6.03
2018-06-12T23:04:26.357Z,4.77
2018-06-12T23:07:00.370Z,5.60
2018-06-12T23:09:34.220Z,5.60
2018-06-12T23:12:08.130Z,4.80
2018-06-12T23:14:42.253Z,5.83
2018-06-12T23:17:16.333Z,5.67
2018-06-12T23:21:04.271Z,6.43
2018-06-12T23:23:38.316Z,5.93
2018-06-12T23:26:12.442Z,9.47
2018-06-12T23:28:53.196Z,6.17
2018-06-12T23:31:27.115Z,7.10
2018-06-12T23:34:00.936Z,6.20
2018-06-12T23:36:34.984Z,8.37
2018-06-12T23:39:08.921Z,6.67
2018-06-12T23:41:42.735Z,7.63
2018-06-12T23:44:16.906Z,7.13
2018-06-12T23:46:50.927Z,5.20
2018-06-12T23:49:25.199Z,5.17
2018-06-12T23:51:59.268Z,6.83
2018-06-12T23:54:33.160Z,9.40
2018-06-12T23:57:07.100Z,5.80
2018-06-12T23:59:40.952Z,7.03
